createdAt,value
2023-03-29T00:01:53.909Z,65.47
2023-03-29T00:06:56.997Z,65.88
2023-03-29T00:11:58.782Z,65.41
2023-03-29T00:17:00.885Z,65.52
2023-03-29T00:22:06.149Z,65.65
2023-03-29T00:27:08.057Z,65.63
2023-03-29T00:32:09.927Z,65.60
2023-03-29T00:37:14.826Z,65.79
2023-03-29T00:42:17.054Z,65.55
2023-03-29T00:47:19.237Z,65.38
2023-03-29T00:52:22.657Z,64.89
2023-03-29T00:57:27.654Z,65.56
2023-03-29T01:02:29.662Z,65.29
2023-03-29T01:07:35.246Z,65.23
2023-03-29T01:12:39.180Z,65.10
2023-03-29T01:17:41.417Z,64.99
2023-03-29T01:22:54.587Z,64.90
2023-03-29T01:27:58.993Z,64.52
2023-03-29T01:33:02.777Z,64.84
2023-03-29T01:38:07.341Z,64.04
2023-03-29T01:43:18.887Z,63.96
2023-03-29T01:48:24.317Z,64.65
2023-03-29T01:53:28.449Z,64.47
2023-03-29T01:58:33.947Z,64.18
2023-03-29T02:03:42.137Z,63.99
2023-03-29T02:08:44.701Z,64.09
2023-03-29T02:13:49.773Z,64.18
2023-03-29T02:18:52.791Z,64.60
2023-03-29T02:23:54.966Z,64.03
2023-03-29T02:28:58.033Z,63.84
2023-03-29T02:34:01.274Z,63.39
2023-03-29T02:39:05.730Z,63.41
2023-03-29T02:44:10.178Z,63.34
2023-03-29T02:49:12.099Z,62.97
2023-03-29T02:54:15.506Z,62.68
2023-03-29T02:59:19.516Z,62.67
2023-03-29T03:04:21.389Z,62.95
2023-03-29T03:09:24.072Z,63.49
2023-03-29T03:14:29.406Z,64.00
2023-03-29T03:19:33.140Z,64.31
2023-03-29T03:24:35.472Z,64.05
2023-03-29T03:29:39.032Z,64.53
2023-03-29T03:34:43.718Z,64.97
2023-03-29T03:39:46.235Z,65.07
2023-03-29T03:44:49.774Z,65.74
2023-03-29T03:50:11.598Z,66.54
2023-03-29T03:55:14.287Z,67.20
2023-03-29T04:00:42.643Z,67.84
2023-03-29T04:06:01.597Z,68.65
2023-03-29T04:11:11.384Z,69.94
2023-03-29T04:16:17.669Z,71.21
2023-03-29T04:21:21.343Z,72.47
2023-03-29T04:26:23.507Z,73.99
2023-03-29T04:31:33.234Z,75.31
2023-03-29T04:36:50.124Z,75.76
2023-03-29T04:41:55.650Z,76.79
2023-03-29T04:47:02.881Z,77.47
2023-03-29T04:52:24.281Z,78.66
2023-03-29T04:57:26.801Z,79.88
2023-03-29T05:02:57.788Z,80.11
2023-03-29T05:08:00.944Z,80.56
2023-03-29T05:13:12.282Z,80.89
2023-03-29T05:18:16.720Z,81.49
2023-03-29T05:23:18.839Z,82.71
2023-03-29T05:28:46.536Z,83.45
2023-03-29T05:33:49.755Z,84.54
2023-03-29T05:38:52.188Z,84.79
2023-03-29T05:43:56.249Z,85.04
2023-03-29T05:49:02.322Z,85.71
2023-03-29T05:54:22.976Z,86.35
2023-03-29T05:59:28.147Z,86.35
2023-03-29T06:04:31.824Z,86.73
2023-03-29T06:09:54.096Z,86.71
2023-03-29T06:14:58.183Z,87.32
2023-03-29T06:20:11.470Z,87.96
2023-03-29T06:25:17.496Z,87.61
2023-03-29T06:30:23.822Z,87.40
2023-03-29T06:35:30.178Z,87.56
2023-03-29T06:40:39.265Z,90.64
2023-03-29T06:45:42.612Z,89.18
2023-03-29T06:50:56.365Z,86.30
2023-03-29T06:56:05.161Z,86.38
2023-03-29T07:01:15.076Z,85.81
2023-03-29T07:06:29.788Z,83.93
2023-03-29T07:11:33.970Z,83.45
2023-03-29T07:16:47.338Z,82.04
2023-03-29T07:21:55.174Z,80.71
2023-03-29T07:27:05.182Z,80.61
2023-03-29T07:32:08.312Z,80.21
2023-03-29T07:37:20.738Z,79.73
2023-03-29T07:42:22.867Z,77.79
2023-03-29T07:47:25.978Z,74.53
2023-03-29T07:52:30.022Z,73.22
2023-03-29T07:57:32.519Z,72.57
2023-03-29T08:02:34.498Z,73.05
2023-03-29T08:07:39.658Z,72.67
2023-03-29T08:12:50.309Z,68.87
2023-03-29T08:17:54.699Z,68.10
2023-03-29T08:23:02.365Z,66.86
2023-03-29T08:28:08.573Z,69.19
2023-03-29T08:33:22.138Z,69.70
2023-03-29T08:38:34.103Z,70.09
2023-03-29T08:43:52.787Z,69.71
2023-03-29T08:49:05.033Z,70.86
2023-03-29T08:54:11.443Z,70.67
2023-03-29T08:59:33.076Z,71.11
2023-03-29T09:04:38.223Z,71.41
2023-03-29T09:10:12.086Z,71.19
2023-03-29T09:15:16.360Z,70.72
2023-03-29T09:20:33.192Z,69.96
2023-03-29T09:25:52.538Z,70.57
2023-03-29T09:31:00.131Z,69.10
2023-03-29T09:36:04.203Z,67.50
2023-03-29T09:41:17.234Z,66.56
2023-03-29T09:46:21.714Z,65.21
2023-03-29T09:51:24.857Z,63.68
2023-03-29T09:56:28.026Z,59.43
2023-03-29T10:01:41.393Z,59.25
2023-03-29T10:06:44.708Z,59.77
2023-03-29T10:11:48.517Z,63.06
2023-03-29T10:16:55.390Z,63.46
2023-03-29T10:21:59.178Z,62.19
2023-03-29T10:27:02.884Z,60.21
2023-03-29T10:32:13.826Z,59.25
2023-03-29T10:37:19.014Z,60.56
2023-03-29T10:42:23.748Z,60.52
2023-03-29T10:47:25.662Z,61.05
2023-03-29T10:52:29.197Z,62.53
2023-03-29T10:57:34.130Z,66.19
2023-03-29T11:02:59.900Z,65.37
2023-03-29T11:08:09.498Z,65.74
2023-03-29T11:13:15.119Z,66.81
2023-03-29T11:18:49.753Z,66.46
2023-03-29T11:23:57.487Z,64.92
2023-03-29T11:29:02.622Z,66.42
2023-03-29T11:34:12.527Z,66.46
2023-03-29T11:39:16.315Z,65.93
2023-03-29T11:44:20.623Z,63.26
2023-03-29T11:49:24.488Z,61.32
2023-03-29T11:54:28.437Z,64.41
2023-03-29T11:59:34.508Z,67.22
2023-03-29T12:04:38.617Z,65.03
2023-03-29T12:09:42.185Z,63.78
2023-03-29T12:14:49.303Z,66.06
2023-03-29T12:19:55.568Z,65.24
2023-03-29T12:24:57.696Z,67.24
2023-03-29T12:30:35.315Z,70.08
2023-03-29T12:35:40.998Z,72.05
2023-03-29T12:41:19.092Z,72.24
2023-03-29T12:46:41.132Z,71.91
2023-03-29T12:51:43.393Z,70.15
2023-03-29T12:56:55.066Z,68.89
2023-03-29T13:02:27.729Z,68.52
2023-03-29T13:07:31.999Z,65.70
2023-03-29T13:12:36.756Z,64.77
2023-03-29T13:17:45.146Z,64.54
2023-03-29T13:22:52.158Z,65.81
2023-03-29T13:27:57.121Z,65.23
2023-03-29T13:33:24.054Z,65.52
2023-03-29T13:38:31.826Z,67.03
2023-03-29T13:43:35.935Z,70.14
2023-03-29T13:48:58.458Z,71.22
2023-03-29T13:54:03.431Z,73.17
2023-03-29T13:59:09.718Z,74.02
2023-03-29T14:04:14.381Z,73.31
2023-03-29T14:09:16.056Z,73.02
2023-03-29T14:14:17.950Z,73.61
2023-03-29T14:19:24.187Z,74.49
2023-03-29T14:24:27.189Z,74.70
2023-03-29T14:29:30.845Z,74.93
2023-03-29T14:34:33.941Z,73.77
2023-03-29T14:39:35.736Z,75.05
2023-03-29T14:44:37.486Z,77.20
2023-03-29T14:49:40.570Z,78.63
2023-03-29T14:54:44.242Z,79.64
2023-03-29T14:59:50.218Z,80.69
2023-03-29T15:04:57.747Z,82.61
2023-03-29T15:09:59.880Z,82.90
2023-03-29T15:15:02.410Z,83.76
2023-03-29T15:20:10.960Z,83.55
2023-03-29T15:25:16.535Z,84.46
2023-03-29T15:30:18.651Z,85.65
2023-03-29T15:35:23.388Z,86.06
2023-03-29T15:40:26.305Z,87.57
2023-03-29T15:45:28.044Z,88.22
2023-03-29T15:50:31.716Z,89.35
2023-03-29T15:55:33.444Z,89.51
2023-03-29T16:00:35.402Z,89.07
2023-03-29T16:05:38.479Z,88.84
2023-03-29T16:10:40.490Z,88.44
2023-03-29T16:15:42.555Z,89.09
2023-03-29T16:20:46.538Z,89.67
2023-03-29T16:25:48.258Z,90.15
2023-03-29T16:30:50.303Z,90.20
2023-03-29T16:35:53.353Z,90.44
2023-03-29T16:40:55.109Z,90.65
2023-03-29T16:45:57.408Z,91.34
2023-03-29T16:51:00.930Z,91.49
2023-03-29T16:56:03.315Z,91.53
2023-03-29T17:01:09.703Z,91.43
2023-03-29T17:06:12.825Z,92.25
2023-03-29T17:11:15.542Z,92.60
2023-03-29T17:16:17.463Z,92.97
2023-03-29T17:21:21.231Z,93.09
2023-03-29T17:26:22.937Z,93.54
2023-03-29T17:31:24.702Z,93.78
2023-03-29T17:36:28.898Z,94.16
2023-03-29T17:41:31.110Z,94.38
2023-03-29T17:46:33.438Z,94.23
2023-03-29T17:51:36.749Z,94.13
2023-03-29T17:56:38.521Z,94.88
2023-03-29T18:01:40.357Z,95.28
2023-03-29T18:06:43.608Z,95.24
2023-03-29T18:11:45.383Z,95.59
2023-03-29T18:16:47.243Z,95.43
2023-03-29T18:21:51.037Z,95.61
2023-03-29T18:26:52.784Z,95.53
2023-03-29T18:31:54.565Z,96.47
2023-03-29T18:36:57.722Z,96.83
2023-03-29T18:41:59.579Z,97.69
2023-03-29T18:47:01.585Z,97.79
2023-03-29T18:52:05.707Z,98.14
2023-03-29T18:57:07.433Z,98.25
2023-03-29T19:02:09.700Z,98.43
2023-03-29T19:07:12.751Z,98.63
2023-03-29T19:12:14.446Z,99.04
2023-03-29T19:17:16.398Z,99.47
2023-03-29T19:22:19.439Z,100.00
2023-03-29T19:27:21.243Z,100.00
2023-03-29T19:32:22.947Z,100.00
2023-03-29T19:37:26.426Z,99.92
2023-03-29T19:42:28.181Z,100.00
2023-03-29T19:47:29.982Z,100.00
2023-03-29T19:52:33.060Z,100.00
2023-03-29T19:57:34.895Z,100.00
2023-03-29T20:02:36.760Z,100.00
2023-03-29T20:07:39.808Z,100.00
2023-03-29T20:12:41.552Z,100.00
2023-03-29T20:17:43.366Z,100.00
2023-03-29T20:22:46.721Z,100.00
2023-03-29T20:27:49.424Z,100.00
2023-03-29T20:32:51.251Z,100.00
2023-03-29T20:37:54.366Z,100.00
2023-03-29T20:42:56.134Z,100.00
2023-03-29T20:47:58.090Z,100.00
2023-03-29T20:53:03.931Z,100.00
2023-03-29T20:58:06.080Z,100.00
2023-03-29T21:03:08.554Z,100.00
2023-03-29T21:08:11.844Z,100.00
2023-03-29T21:13:13.685Z,100.00
2023-03-29T21:18:15.710Z,100.00
2023-03-29T21:23:18.797Z,100.00
2023-03-29T21:28:20.529Z,100.00
2023-03-29T21:33:22.249Z,100.00
2023-03-29T21:38:25.372Z,100.00
2023-03-29T21:43:27.122Z,100.00
2023-03-29T21:48:29.103Z,100.00
2023-03-29T21:53:32.271Z,100.00
2023-03-29T21:58:34.086Z,100.00
2023-03-29T22:03:35.880Z,100.00
2023-03-29T22:08:40.766Z,100.00
2023-03-29T22:13:42.917Z,100.00
2023-03-29T22:18:49.079Z,100.00
2023-03-29T22:23:53.056Z,100.00
2023-03-29T22:28:54.900Z,100.00
2023-03-29T22:33:58.266Z,100.00
2023-03-29T22:39:01.496Z,100.00
2023-03-29T22:44:03.719Z,100.00
2023-03-29T22:49:06.115Z,100.00
2023-03-29T22:54:09.265Z,100.00
2023-03-29T22:59:11.051Z,100.00
2023-03-29T23:04:12.772Z,100.00
2023-03-29T23:09:16.582Z,100.00
2023-03-29T23:14:18.937Z,100.00
2023-03-29T23:19:20.828Z,100.00
2023-03-29T23:24:24.103Z,100.00
2023-03-29T23:29:26.348Z,100.00
2023-03-29T23:34:28.065Z,100.00
2023-03-29T23:39:31.339Z,100.00
2023-03-29T23:44:33.109Z,100.00
2023-03-29T23:49:36.244Z,100.00
2023-03-29T23:54:39.386Z,100.00
2023-03-29T23:59:41.116Z,100.00
